首页
METAR-TAF:

METAR-TAF

机场 :

Beckley, 西維吉尼亞州, 美国

纬度: 37-47-42N, 经度: 081-07-29W, 海拔: 763米

当前天气观测

该预报发布于51分钟前的22:51 UTC
风速9节,风向西,在西转西南西北之间变化
温度 27°C
湿度 39%
气压 1014 hPa
能見度: 16.1公里
天空无云

METAR: KBKW 032251Z AUTO 28009KT 250V310 10SM CLR 27/12 A2995 RMK AO2 SLP106 T02720122

时间: 19:42 (23:42 UTC)

预报

该预报发布于20分钟前的23:22 UTC
预报有效从04日的 00点(UTC)到 04日的 24点(UTC)
风速7节,风向西
能見度: 10公里
天空无云
从 04日的 0200点(UTC)
风速节,风向
能見度: 10公里
天空无云
从 04日的 1600点(UTC)
风速3节,风向多变
能見度: 10公里
散云层高于3500英尺
从 04日的 1900点(UTC)
风速4节,风向西转西南
能見度: 10公里
散云层高于4500英尺, 积雨云.
附近有雷暴

TAF: KBKW 032322Z 0400/0424 27007KT P6SM SKC FM040200 00000KT P6SM SKC FM041600 VRB03KT P6SM SCT035 FM041900 24004KT P6SM VCTS SCT045CB

超过4000个机场的气象观测和天气预报(METAR&TAF报告)。

可查询的气象台以黄色和红色小点在地图上表示。

将鼠标移到小点上方,可查看气象台名称。

然后点击查看天气观测和预报。

如需切换地图:点击带黑十字的绿色按钮放大地图;点击带横线的绿色按钮缩小地图;或者点击绿色箭头查看邻近地区的地图。


METAR-TAF: